Emmetsburg, Iowa
Current Conditions -  °F | °C
As of 2:52 AM on Saturday 29 Nov 2014 (Local Time) from KEST Reporting Station
Haze Haze  
Wind Chill:   Ceiling: Unl
Heat Index: 16°   Visibility: 5mi
Dew Point: 15°   Wind: 8mph
Humidity: 96%   Direction: 170°S
Pressure: 29.53"   Gusts: NA
Location:  43.11°N, 94.68°W
Report Text: KEST 290852Z AUTO 17007KT 5SM BR CLR M09/M09 A2953 RMK AO2 SLP021 I1000 I3000 T10891094 56020
Loading
Personal Weather Stations






























Interactive Weather Map New forecast layout! Learn more

10-Day Weather Forecast

Advertisements
Track Severe Weather on mobile